createdAt,value
2022-09-03T00:01:59.975Z,30.24
2022-09-03T00:05:01.026Z,30.20
2022-09-03T00:07:58.263Z,30.31
2022-09-03T00:11:01.545Z,30.18
2022-09-03T00:13:40.774Z,30.23
2022-09-03T00:16:15.168Z,30.26
2022-09-03T00:18:53.379Z,30.26
2022-09-03T00:21:47.255Z,30.32
2022-09-03T00:24:20.874Z,30.11
2022-09-03T00:26:57.270Z,30.12
2022-09-03T00:29:42.771Z,30.21
2022-09-03T00:32:29.280Z,30.29
2022-09-03T00:35:07.351Z,30.04
2022-09-03T00:37:38.083Z,29.92
2022-09-03T00:40:22.097Z,30.16
2022-09-03T00:43:04.168Z,30.02
2022-09-03T00:46:20.659Z,30.04
2022-09-03T00:49:08.317Z,30.14
2022-09-03T00:51:46.316Z,30.13
2022-09-03T00:54:56.782Z,30.23
2022-09-03T00:58:10.790Z,30.23
2022-09-03T01:00:44.631Z,30.20
2022-09-03T01:03:32.462Z,30.16
2022-09-03T01:06:23.475Z,30.34
2022-09-03T01:09:13.592Z,30.22
2022-09-03T01:12:07.778Z,30.38
2022-09-03T01:14:46.014Z,30.27
2022-09-03T01:17:30.573Z,30.30
2022-09-03T01:20:35.413Z,30.36
2022-09-03T01:23:26.013Z,30.46
2022-09-03T01:26:10.158Z,30.44
2022-09-03T01:29:07.720Z,30.48
2022-09-03T01:31:40.100Z,30.45
2022-09-03T01:34:38.215Z,30.50
2022-09-03T01:37:29.662Z,30.54
2022-09-03T01:40:11.238Z,30.65
2022-09-03T01:43:02.402Z,30.55
2022-09-03T01:45:51.483Z,30.50
2022-09-03T01:48:34.599Z,30.67
2022-09-03T01:51:14.735Z,30.65
2022-09-03T01:53:47.071Z,30.56
2022-09-03T01:57:17.252Z,30.81
2022-09-03T02:00:14.909Z,30.90
2022-09-03T02:02:52.453Z,30.74
2022-09-03T02:05:25.924Z,30.74
2022-09-03T02:08:07.491Z,31.02
2022-09-03T02:10:48.138Z,31.01
2022-09-03T02:13:28.255Z,31.11
2022-09-03T02:16:04.866Z,31.05
2022-09-03T02:18:42.641Z,31.16
2022-09-03T02:21:12.263Z,31.06
2022-09-03T02:23:43.242Z,31.18
2022-09-03T02:26:14.930Z,31.28
2022-09-03T02:28:44.424Z,31.28
2022-09-03T02:31:16.419Z,31.23
2022-09-03T02:33:48.756Z,31.43
2022-09-03T02:36:22.372Z,31.50
2022-09-03T02:38:54.401Z,31.42
2022-09-03T02:41:25.564Z,31.46
2022-09-03T02:44:26.852Z,31.65
2022-09-03T02:47:06.291Z,31.82
2022-09-03T02:49:36.327Z,31.58
2022-09-03T02:52:10.861Z,31.68
2022-09-03T02:54:41.351Z,31.82
2022-09-03T02:57:13.893Z,31.92
2022-09-03T02:59:47.080Z,31.93
2022-09-03T03:02:16.608Z,31.87
2022-09-03T03:04:46.067Z,31.87
2022-09-03T03:07:15.261Z,31.93
2022-09-03T03:09:45.306Z,31.95
2022-09-03T03:12:14.712Z,31.81
2022-09-03T03:14:44.007Z,32.14
2022-09-03T03:17:13.437Z,32.30
2022-09-03T03:19:42.649Z,32.43
2022-09-03T03:22:11.729Z,32.35
2022-09-03T03:24:41.126Z,32.43
2022-09-03T03:27:12.106Z,32.38
2022-09-03T03:29:42.060Z,32.58
2022-09-03T03:32:11.256Z,32.71
2022-09-03T03:34:41.785Z,32.81
2022-09-03T03:37:11.176Z,32.78
2022-09-03T03:39:40.697Z,32.90
2022-09-03T03:42:10.412Z,33.02
2022-09-03T03:44:39.509Z,33.16
2022-09-03T03:47:08.814Z,33.22
2022-09-03T03:49:39.234Z,33.24
2022-09-03T03:52:08.565Z,33.31
2022-09-03T03:57:41.452Z,33.36
2022-09-03T04:00:11.374Z,33.51
2022-09-03T04:02:43.595Z,33.59
2022-09-03T04:05:13.217Z,33.62
2022-09-03T04:07:42.237Z,33.80
2022-09-03T04:10:11.917Z,33.89
2022-09-03T04:12:41.680Z,34.00
2022-09-03T04:15:11.321Z,34.08
2022-09-03T04:17:40.935Z,34.11
2022-09-03T04:20:11.205Z,34.29
2022-09-03T04:22:40.750Z,34.32
2022-09-03T04:25:10.321Z,34.45
2022-09-03T04:27:39.694Z,34.50
2022-09-03T04:30:09.832Z,34.48
2022-09-03T04:32:54.683Z,34.49
2022-09-03T04:35:26.428Z,34.80
2022-09-03T04:37:56.584Z,34.60
2022-09-03T04:40:26.332Z,34.76
2022-09-03T04:43:00.915Z,34.84
2022-09-03T04:45:31.003Z,34.87
2022-09-03T04:48:06.183Z,34.93
2022-09-03T04:50:36.692Z,34.80
2022-09-03T04:53:08.448Z,34.81
2022-09-03T04:55:39.176Z,34.99
2022-09-03T04:58:11.917Z,34.99
2022-09-03T05:00:41.398Z,35.04
2022-09-03T05:03:10.538Z,35.04
2022-09-03T05:05:48.590Z,35.24
2022-09-03T05:08:20.041Z,35.29
2022-09-03T05:10:49.930Z,35.37
2022-09-03T05:13:24.417Z,35.39
2022-09-03T05:15:54.361Z,35.56
2022-09-03T05:18:24.110Z,35.59
2022-09-03T05:21:19.534Z,35.85
2022-09-03T05:23:53.963Z,35.81
2022-09-03T05:26:28.708Z,35.58
2022-09-03T05:29:00.641Z,35.79
2022-09-03T05:31:33.507Z,35.96
2022-09-03T05:34:04.921Z,36.10
2022-09-03T05:36:37.017Z,36.08
2022-09-03T05:39:06.459Z,36.05
2022-09-03T05:41:35.829Z,36.19
2022-09-03T05:44:07.538Z,36.35
2022-09-03T05:46:38.753Z,36.35
2022-09-03T05:49:09.285Z,36.42
2022-09-03T05:51:43.683Z,36.56
2022-09-03T05:54:13.264Z,36.62
2022-09-03T05:56:43.495Z,36.32
2022-09-03T05:59:15.220Z,36.44
2022-09-03T06:01:50.955Z,36.52
2022-09-03T06:04:22.430Z,36.43
2022-09-03T06:06:51.958Z,36.47
2022-09-03T06:09:23.725Z,36.35
2022-09-03T06:11:57.372Z,36.41
2022-09-03T06:14:28.615Z,36.47
2022-09-03T06:16:58.203Z,36.60
2022-09-03T06:19:27.437Z,36.77
2022-09-03T06:21:56.812Z,36.92
2022-09-03T06:24:28.630Z,36.97
2022-09-03T06:26:59.336Z,37.28
2022-09-03T06:29:30.774Z,37.16
2022-09-03T06:32:05.054Z,37.06
2022-09-03T06:34:34.028Z,37.26
2022-09-03T06:37:03.339Z,36.92
2022-09-03T06:39:33.168Z,36.71
2022-09-03T06:42:02.434Z,36.89
2022-09-03T06:44:37.669Z,37.08
2022-09-03T06:47:06.976Z,37.10
2022-09-03T06:49:36.169Z,36.92
2022-09-03T06:52:05.395Z,37.12
2022-09-03T06:54:34.982Z,37.20
2022-09-03T06:57:07.440Z,37.29
2022-09-03T06:59:37.374Z,37.38
2022-09-03T07:02:08.096Z,37.51
2022-09-03T07:04:37.752Z,37.45
2022-09-03T07:07:07.055Z,37.57
2022-09-03T07:09:39.510Z,37.49
2022-09-03T07:12:12.030Z,37.69
2022-09-03T07:14:41.856Z,37.58
2022-09-03T07:17:12.606Z,37.44
2022-09-03T07:19:41.785Z,37.62
2022-09-03T07:22:11.975Z,37.66
2022-09-03T07:24:41.534Z,37.80
2022-09-03T07:27:14.430Z,37.94
2022-09-03T07:29:44.386Z,37.89
2022-09-03T07:32:13.511Z,37.75
2022-09-03T07:34:42.651Z,37.73
2022-09-03T07:37:12.580Z,37.69
2022-09-03T07:39:42.539Z,37.84
2022-09-03T07:42:12.244Z,37.51
2022-09-03T07:44:41.436Z,37.57
2022-09-03T07:47:11.873Z,37.75
2022-09-03T07:49:41.228Z,37.84
2022-09-03T07:52:12.036Z,38.07
2022-09-03T07:54:43.488Z,38.06
2022-09-03T07:57:12.970Z,37.88
2022-09-03T07:59:43.064Z,37.92
2022-09-03T08:02:12.553Z,38.09
2022-09-03T08:04:42.640Z,38.23
2022-09-03T08:07:11.804Z,38.22
2022-09-03T08:09:41.950Z,38.18
2022-09-03T08:12:11.150Z,38.29
2022-09-03T08:14:40.374Z,38.21
2022-09-03T08:17:09.921Z,38.27
2022-09-03T08:19:38.826Z,38.13
2022-09-03T08:22:08.057Z,37.85
2022-09-03T08:24:37.989Z,38.08
2022-09-03T08:27:07.039Z,37.98
2022-09-03T08:29:36.357Z,38.08
2022-09-03T08:32:06.699Z,37.82
2022-09-03T08:34:36.424Z,38.11
2022-09-03T08:37:07.357Z,38.20
2022-09-03T08:39:37.028Z,38.39
2022-09-03T08:42:28.338Z,38.42
2022-09-03T08:45:04.495Z,38.56
2022-09-03T08:47:48.192Z,38.65
2022-09-03T08:50:40.417Z,38.68
2022-09-03T08:53:19.680Z,38.62
2022-09-03T08:55:55.104Z,38.14
2022-09-03T08:58:29.009Z,37.90
2022-09-03T09:01:28.707Z,38.24
2022-09-03T09:04:05.676Z,38.20
2022-09-03T09:07:06.990Z,38.37
2022-09-03T09:09:49.988Z,38.17
2022-09-03T09:12:44.044Z,37.84
2022-09-03T09:15:39.045Z,38.19
2022-09-03T09:18:23.883Z,37.90
2022-09-03T09:21:09.831Z,37.87
2022-09-03T09:23:47.731Z,37.80
2022-09-03T09:26:22.918Z,37.57
2022-09-03T09:29:00.132Z,37.39
2022-09-03T09:31:32.009Z,37.23
2022-09-03T09:34:09.781Z,37.45
2022-09-03T09:36:50.782Z,37.50
2022-09-03T09:39:20.529Z,37.40
2022-09-03T09:42:10.438Z,37.65
2022-09-03T09:44:42.692Z,37.70
2022-09-03T09:47:36.080Z,37.89
2022-09-03T09:50:05.973Z,37.86
2022-09-03T09:53:15.639Z,37.88
2022-09-03T09:55:57.361Z,37.73
2022-09-03T09:58:31.764Z,37.64
2022-09-03T10:01:04.929Z,37.51
2022-09-03T10:03:38.776Z,37.32
2022-09-03T10:06:34.143Z,37.23
2022-09-03T10:09:16.961Z,37.20
2022-09-03T10:11:55.129Z,37.21
2022-09-03T10:14:36.130Z,37.32
2022-09-03T10:17:40.890Z,37.51
2022-09-03T10:20:40.561Z,37.64
2022-09-03T10:23:19.869Z,37.57
2022-09-03T10:26:05.475Z,37.57
2022-09-03T10:28:42.660Z,37.60
2022-09-03T10:31:49.285Z,37.79
2022-09-03T10:34:21.971Z,37.62
2022-09-03T10:37:04.160Z,37.63
2022-09-03T10:39:55.214Z,37.59
2022-09-03T10:42:48.256Z,37.66
2022-09-03T10:45:30.383Z,37.67
2022-09-03T10:48:41.761Z,37.66
2022-09-03T10:51:25.446Z,37.68
2022-09-03T10:54:33.633Z,37.65
2022-09-03T10:57:15.445Z,37.44
2022-09-03T11:00:12.030Z,37.58
2022-09-03T11:02:44.748Z,37.53
2022-09-03T11:05:50.662Z,37.44
2022-09-03T11:08:29.936Z,37.39
2022-09-03T11:11:17.625Z,37.31
2022-09-03T11:13:56.271Z,37.16
2022-09-03T11:16:33.744Z,36.97
2022-09-03T11:19:09.447Z,37.01
2022-09-03T11:21:43.392Z,36.87
2022-09-03T11:24:15.678Z,36.75
2022-09-03T11:26:52.802Z,36.55
2022-09-03T11:29:43.933Z,36.50
2022-09-03T11:32:25.174Z,36.37
2022-09-03T11:34:56.476Z,36.46
2022-09-03T11:37:27.262Z,36.43
2022-09-03T11:40:01.159Z,36.41
2022-09-03T11:42:38.591Z,36.42
2022-09-03T11:45:39.873Z,36.35
2022-09-03T11:48:48.818Z,36.38
2022-09-03T11:51:33.399Z,36.26
2022-09-03T11:54:14.378Z,36.16
2022-09-03T11:56:44.113Z,36.20
2022-09-03T12:02:37.198Z,36.21
2022-09-03T12:05:15.118Z,36.11
2022-09-03T12:08:08.895Z,36.15
2022-09-03T12:10:50.863Z,36.08
2022-09-03T12:13:48.398Z,36.16
2022-09-03T12:16:43.087Z,36.12
2022-09-03T12:19:37.546Z,36.05
2022-09-03T12:22:07.411Z,35.89
2022-09-03T12:24:39.056Z,35.78
2022-09-03T12:27:12.433Z,35.85
2022-09-03T12:29:57.697Z,35.95
2022-09-03T12:32:28.362Z,35.77
2022-09-03T12:34:57.811Z,35.65
2022-09-03T12:40:32.148Z,35.72
2022-09-03T12:46:10.673Z,35.59
2022-09-03T12:48:43.990Z,35.51
2022-09-03T12:54:05.043Z,35.49
2022-09-03T12:56:36.596Z,35.41
2022-09-03T12:59:12.454Z,35.37
2022-09-03T13:01:50.540Z,35.40
2022-09-03T13:04:31.654Z,35.37
2022-09-03T13:07:28.901Z,35.47
2022-09-03T13:10:05.710Z,35.23
2022-09-03T13:12:44.592Z,35.27
2022-09-03T13:15:29.309Z,35.29
2022-09-03T13:18:10.139Z,35.14
2022-09-03T13:21:03.438Z,35.13
2022-09-03T13:23:51.823Z,35.04
2022-09-03T13:27:00.027Z,35.05
2022-09-03T13:29:38.119Z,35.13
2022-09-03T13:32:52.321Z,35.21
2022-09-03T13:35:41.486Z,35.14
2022-09-03T13:38:23.727Z,35.02
2022-09-03T13:41:20.741Z,34.92
2022-09-03T13:44:11.173Z,35.06
2022-09-03T13:47:04.521Z,35.03
2022-09-03T13:50:03.674Z,34.85
2022-09-03T13:52:58.228Z,34.59
2022-09-03T13:55:39.888Z,34.72
2022-09-03T13:58:54.326Z,34.89
2022-09-03T14:01:45.727Z,34.58
2022-09-03T14:04:31.513Z,34.50
2022-09-03T14:07:11.498Z,34.69
2022-09-03T14:10:17.392Z,34.89
2022-09-03T14:12:52.449Z,34.77
2022-09-03T14:15:51.298Z,34.92
2022-09-03T14:18:44.917Z,34.91
2022-09-03T14:21:30.773Z,34.91
2022-09-03T14:24:16.183Z,34.90
2022-09-03T14:27:03.561Z,34.87
2022-09-03T14:29:35.696Z,34.72
2022-09-03T14:32:04.832Z,34.97
2022-09-03T14:34:43.084Z,34.69
2022-09-03T14:37:36.524Z,34.75
2022-09-03T14:40:14.988Z,34.78
2022-09-03T14:42:50.613Z,34.79
2022-09-03T14:45:29.406Z,34.64
2022-09-03T14:48:07.780Z,34.69
2022-09-03T14:50:55.073Z,34.81
2022-09-03T14:53:42.852Z,34.73
2022-09-03T14:56:20.704Z,34.79
2022-09-03T14:59:16.890Z,34.86
2022-09-03T15:01:58.186Z,34.77
2022-09-03T15:05:02.674Z,34.81
2022-09-03T15:07:35.874Z,34.63
2022-09-03T15:10:47.779Z,34.75
2022-09-03T15:13:42.915Z,34.69
2022-09-03T15:16:42.160Z,34.66
2022-09-03T15:19:49.034Z,34.66
2022-09-03T15:22:36.782Z,34.50
2022-09-03T15:25:25.309Z,34.50
2022-09-03T15:28:03.477Z,34.23
2022-09-03T15:30:51.292Z,34.38
2022-09-03T15:33:33.108Z,34.25
2022-09-03T15:36:18.724Z,34.30
2022-09-03T15:39:05.090Z,34.28
2022-09-03T15:41:51.813Z,34.23
2022-09-03T15:44:21.821Z,33.93
2022-09-03T15:47:51.628Z,34.17
2022-09-03T15:50:30.746Z,34.01
2022-09-03T15:53:17.951Z,33.91
2022-09-03T15:55:49.792Z,33.92
2022-09-03T15:58:44.340Z,33.97
2022-09-03T16:01:38.547Z,33.89
2022-09-03T16:04:44.449Z,33.78
2022-09-03T16:07:17.269Z,33.79
2022-09-03T16:10:24.763Z,33.81
2022-09-03T16:13:02.305Z,33.69
2022-09-03T16:15:35.636Z,33.65
2022-09-03T16:18:56.823Z,33.76
2022-09-03T16:21:34.984Z,33.63
2022-09-03T16:24:35.914Z,33.76
2022-09-03T16:27:16.741Z,33.55
2022-09-03T16:30:04.148Z,33.60
2022-09-03T16:32:45.567Z,33.64
2022-09-03T16:35:37.403Z,33.64
2022-09-03T16:38:29.604Z,33.58
2022-09-03T16:41:14.400Z,33.58
2022-09-03T16:44:03.674Z,33.55
2022-09-03T16:46:56.595Z,33.54
2022-09-03T16:49:44.007Z,33.40
2022-09-03T16:52:37.785Z,33.32
2022-09-03T16:55:29.137Z,33.46
2022-09-03T16:58:11.093Z,33.24
2022-09-03T17:01:21.752Z,33.37
2022-09-03T17:04:06.280Z,33.34
2022-09-03T17:06:41.609Z,33.28
2022-09-03T17:09:41.078Z,33.22
2022-09-03T17:12:45.963Z,33.22
2022-09-03T17:15:15.633Z,32.83
2022-09-03T17:18:36.486Z,33.02
2022-09-03T17:21:28.875Z,33.03
2022-09-03T17:24:10.362Z,32.97
2022-09-03T17:27:04.367Z,32.93
2022-09-03T17:29:45.726Z,32.96
2022-09-03T17:32:33.312Z,33.01
2022-09-03T17:35:27.959Z,32.85
2022-09-03T17:38:27.481Z,32.70
2022-09-03T17:41:38.078Z,32.72
2022-09-03T17:44:22.713Z,32.61
2022-09-03T17:47:00.916Z,32.61
2022-09-03T17:49:53.684Z,32.68
2022-09-03T17:52:28.885Z,32.60
2022-09-03T17:55:03.258Z,32.66
2022-09-03T17:57:45.751Z,32.85
2022-09-03T18:00:27.208Z,32.71
2022-09-03T18:03:02.331Z,32.55
2022-09-03T18:05:44.363Z,32.36
2022-09-03T18:08:20.230Z,32.55
2022-09-03T18:11:21.562Z,32.77
2022-09-03T18:14:17.845Z,32.68
2022-09-03T18:17:12.975Z,32.49
2022-09-03T18:20:12.334Z,32.26
2022-09-03T18:23:25.364Z,32.32
2022-09-03T18:26:27.248Z,32.31
2022-09-03T18:29:23.583Z,32.17
2022-09-03T18:32:11.211Z,32.35
2022-09-03T18:35:00.074Z,32.29
2022-09-03T18:37:48.238Z,32.21
2022-09-03T18:40:46.738Z,32.25
2022-09-03T18:43:54.105Z,32.23
2022-09-03T18:50:45.050Z,32.44
2022-09-03T18:53:47.161Z,32.39
2022-09-03T18:56:46.020Z,32.38
2022-09-03T18:59:51.724Z,32.24
2022-09-03T19:03:04.004Z,32.24
2022-09-03T19:06:02.106Z,32.37
2022-09-03T19:09:09.466Z,32.25
2022-09-03T19:12:19.079Z,32.26
2022-09-03T19:15:18.196Z,32.08
2022-09-03T19:18:27.568Z,32.02
2022-09-03T19:21:33.397Z,32.27
2022-09-03T19:24:22.052Z,32.10
2022-09-03T19:27:53.418Z,32.30
2022-09-03T19:30:50.645Z,32.08
2022-09-03T19:34:06.438Z,32.03
2022-09-03T19:37:20.552Z,32.23
2022-09-03T19:40:33.336Z,32.25
2022-09-03T19:43:42.076Z,32.17
2022-09-03T19:46:39.238Z,32.25
2022-09-03T19:49:37.315Z,32.13
2022-09-03T19:52:49.958Z,32.22
2022-09-03T19:55:52.761Z,32.19
2022-09-03T19:58:44.475Z,32.23
2022-09-03T20:01:33.654Z,32.15
2022-09-03T20:04:31.679Z,32.15
2022-09-03T20:07:25.682Z,32.19
2022-09-03T20:10:17.202Z,32.20
2022-09-03T20:12:55.893Z,32.17
2022-09-03T20:15:32.257Z,32.32
2022-09-03T20:18:22.702Z,32.22
2022-09-03T20:21:20.182Z,32.29
2022-09-03T20:24:05.861Z,32.10
2022-09-03T20:27:15.106Z,32.21
2022-09-03T20:30:23.915Z,32.33
2022-09-03T20:32:59.327Z,32.18
2022-09-03T20:36:06.934Z,32.07
2022-09-03T20:39:12.630Z,32.08
2022-09-03T20:42:04.371Z,32.01
2022-09-03T20:45:07.570Z,32.21
2022-09-03T20:47:51.605Z,32.19
2022-09-03T20:50:44.875Z,32.26
2022-09-03T20:53:53.430Z,32.31
2022-09-03T20:56:39.122Z,32.24
2022-09-03T20:59:33.286Z,32.18
2022-09-03T21:02:19.579Z,32.07
2022-09-03T21:05:17.995Z,32.18
2022-09-03T21:07:56.296Z,31.95
2022-09-03T21:10:34.982Z,32.13
2022-09-03T21:13:38.525Z,32.12
2022-09-03T21:16:37.320Z,32.12
2022-09-03T21:19:27.615Z,31.72
2022-09-03T21:22:19.674Z,31.75
2022-09-03T21:25:01.892Z,31.74
2022-09-03T21:27:43.370Z,31.78
2022-09-03T21:30:19.874Z,31.61
2022-09-03T21:33:20.968Z,31.60
2022-09-03T21:36:27.520Z,31.59
2022-09-03T21:39:02.867Z,31.51
2022-09-03T21:41:41.490Z,31.54
2022-09-03T21:44:18.380Z,31.72
2022-09-03T21:47:08.119Z,31.62
2022-09-03T21:49:48.892Z,31.53
2022-09-03T21:52:23.202Z,31.56
2022-09-03T21:54:53.390Z,31.45
2022-09-03T21:57:43.936Z,31.60
2022-09-03T22:00:22.174Z,31.67
2022-09-03T22:02:52.001Z,31.54
2022-09-03T22:05:22.394Z,31.35
2022-09-03T22:08:10.547Z,31.55
2022-09-03T22:10:55.940Z,31.66
2022-09-03T22:13:32.843Z,31.35
2022-09-03T22:16:18.965Z,31.44
2022-09-03T22:18:51.355Z,31.29
2022-09-03T22:21:20.319Z,31.50
2022-09-03T22:24:24.293Z,31.30
2022-09-03T22:27:12.129Z,31.28
2022-09-03T22:30:03.959Z,31.30
2022-09-03T22:33:03.783Z,31.36
2022-09-03T22:35:51.374Z,31.28
2022-09-03T22:38:47.646Z,31.25
2022-09-03T22:41:21.311Z,31.29
2022-09-03T22:44:12.407Z,31.47
2022-09-03T22:47:12.546Z,31.43
2022-09-03T22:49:58.340Z,31.39
2022-09-03T22:52:36.565Z,31.42
2022-09-03T22:55:11.220Z,31.29
2022-09-03T22:58:03.992Z,31.26
2022-09-03T23:00:44.251Z,31.15
2022-09-03T23:03:20.733Z,31.12
2022-09-03T23:05:57.959Z,31.13
2022-09-03T23:08:52.011Z,31.12
2022-09-03T23:11:49.400Z,31.03
2022-09-03T23:14:29.916Z,31.04
2022-09-03T23:17:14.537Z,31.06
2022-09-03T23:19:51.974Z,30.94
2022-09-03T23:22:35.653Z,30.78
2022-09-03T23:25:12.272Z,31.00
2022-09-03T23:27:50.906Z,31.14
2022-09-03T23:30:21.026Z,31.07
2022-09-03T23:32:59.215Z,30.96
2022-09-03T23:35:31.671Z,30.98
2022-09-03T23:38:31.585Z,30.93
2022-09-03T23:41:08.249Z,30.96
2022-09-03T23:44:02.868Z,31.04
2022-09-03T23:46:45.844Z,31.14
2022-09-03T23:49:37.857Z,31.11
2022-09-03T23:52:25.549Z,31.22
2022-09-03T23:55:15.143Z,30.91
2022-09-03T23:57:59.754Z,30.84
